createdAt,value
2018-12-04T00:00:27.336Z,47.10
2018-12-04T00:02:53.310Z,47.10
2018-12-04T00:05:19.285Z,47.20
2018-12-04T00:07:45.278Z,47.20
2018-12-04T00:10:11.274Z,47.10
2018-12-04T00:12:37.264Z,47.10
2018-12-04T00:15:03.279Z,47.10
2018-12-04T00:17:29.278Z,47.20
2018-12-04T00:19:55.270Z,47.20
2018-12-04T00:22:21.259Z,47.20
2018-12-04T00:24:47.262Z,47.20
2018-12-04T00:27:13.228Z,47.10
2018-12-04T00:29:39.210Z,47.10
2018-12-04T00:32:05.182Z,47.20
2018-12-04T00:34:31.190Z,47.10
2018-12-04T00:36:57.210Z,47.20
2018-12-04T00:39:23.271Z,47.00
2018-12-04T00:41:49.428Z,47.10
2018-12-04T00:44:15.392Z,47.10
2018-12-04T00:46:41.377Z,47.10
2018-12-04T00:49:07.364Z,47.10
2018-12-04T00:51:33.333Z,47.10
2018-12-04T00:53:59.281Z,47.00
2018-12-04T00:56:25.282Z,47.10
2018-12-04T00:58:51.227Z,47.10
2018-12-04T01:01:17.237Z,47.10
2018-12-04T01:03:43.210Z,47.00
2018-12-04T01:06:09.196Z,47.10
2018-12-04T01:08:35.184Z,47.10
2018-12-04T01:11:01.159Z,47.00
2018-12-04T01:13:27.119Z,47.10
2018-12-04T01:15:53.081Z,47.10
2018-12-04T01:18:19.043Z,47.00
2018-12-04T01:20:45.061Z,47.10
2018-12-04T01:23:11.037Z,47.00
2018-12-04T01:25:37.072Z,47.10
2018-12-04T01:28:03.062Z,47.10
2018-12-04T01:30:29.019Z,47.10
2018-12-04T01:32:54.996Z,47.10
2018-12-04T01:35:20.957Z,47.10
2018-12-04T01:37:46.968Z,47.10
2018-12-04T01:40:12.964Z,47.10
2018-12-04T01:42:38.947Z,47.10
2018-12-04T01:45:05.019Z,47.00
2018-12-04T01:47:30.975Z,47.00
2018-12-04T01:49:56.965Z,47.00
2018-12-04T01:52:22.911Z,47.10
2018-12-04T01:54:48.868Z,46.90
2018-12-04T01:57:14.852Z,47.00
2018-12-04T01:59:40.811Z,47.00
2018-12-04T02:02:06.787Z,46.90
2018-12-04T02:04:32.776Z,46.90
2018-12-04T02:06:58.755Z,47.10
2018-12-04T02:09:24.760Z,47.00
2018-12-04T02:11:50.722Z,47.00
2018-12-04T02:14:16.700Z,47.40
2018-12-04T02:16:42.646Z,47.00
2018-12-04T02:19:08.630Z,47.00
2018-12-04T02:21:34.592Z,47.00
2018-12-04T02:24:00.570Z,46.90
2018-12-04T02:26:26.533Z,46.90
2018-12-04T02:28:52.518Z,46.90
2018-12-04T02:31:18.514Z,46.90
2018-12-04T02:33:44.498Z,46.80
2018-12-04T02:36:10.474Z,46.70
2018-12-04T02:38:36.441Z,46.70
2018-12-04T02:41:02.410Z,46.60
2018-12-04T02:43:28.375Z,46.70
2018-12-04T02:45:54.348Z,46.60
2018-12-04T02:48:20.326Z,46.60
2018-12-04T02:50:46.296Z,46.60
2018-12-04T02:53:12.286Z,46.60
2018-12-04T02:55:39.244Z,46.50
2018-12-04T02:58:05.231Z,46.60
2018-12-04T03:00:31.200Z,46.50
2018-12-04T03:02:57.163Z,46.50
2018-12-04T03:05:23.155Z,46.60
2018-12-04T03:07:49.115Z,46.50
2018-12-04T03:10:15.238Z,46.40
2018-12-04T03:12:41.235Z,46.50
2018-12-04T03:15:07.241Z,46.50
2018-12-04T03:17:33.226Z,46.60
2018-12-04T03:19:59.240Z,46.60
2018-12-04T03:22:25.198Z,46.50
2018-12-04T03:24:51.170Z,46.50
2018-12-04T03:27:17.159Z,46.50
2018-12-04T03:29:43.140Z,46.50
2018-12-04T03:32:09.170Z,46.50
2018-12-04T03:34:35.151Z,46.50
2018-12-04T03:37:01.162Z,46.60
2018-12-04T03:39:27.149Z,46.40
2018-12-04T03:41:53.120Z,46.40
2018-12-04T03:44:19.117Z,46.50
2018-12-04T03:46:45.115Z,46.50
2018-12-04T03:49:11.105Z,46.50
2018-12-04T03:51:37.090Z,46.50
2018-12-04T03:54:03.074Z,46.50
2018-12-04T03:56:29.058Z,46.40
2018-12-04T03:58:55.053Z,46.40
2018-12-04T04:01:21.017Z,46.40
2018-12-04T04:03:46.998Z,46.40
2018-12-04T04:06:12.984Z,46.50
2018-12-04T04:08:39.004Z,46.50
2018-12-04T04:11:05.003Z,46.50
2018-12-04T04:13:30.989Z,46.50
2018-12-04T04:15:57.021Z,46.40
2018-12-04T04:18:23.013Z,46.40
2018-12-04T04:20:48.994Z,46.70
2018-12-04T04:23:14.993Z,46.40
2018-12-04T04:25:41.755Z,46.40
2018-12-04T04:28:07.707Z,46.40
2018-12-04T04:30:33.663Z,46.40
2018-12-04T04:32:59.659Z,46.40
2018-12-04T04:35:25.651Z,46.40
2018-12-04T04:37:51.627Z,46.40
2018-12-04T04:40:17.623Z,46.50
2018-12-04T04:42:43.699Z,46.50
2018-12-04T04:45:09.659Z,46.50
2018-12-04T04:47:35.681Z,46.40
2018-12-04T04:50:01.659Z,46.60
2018-12-04T04:52:27.748Z,46.50
2018-12-04T04:54:53.742Z,46.40
2018-12-04T04:57:19.736Z,46.40
2018-12-04T04:59:45.701Z,46.30
2018-12-04T05:02:11.691Z,46.40
2018-12-04T05:04:37.683Z,46.60
2018-12-04T05:07:03.684Z,46.50
2018-12-04T05:09:29.673Z,46.60
2018-12-04T05:11:55.651Z,46.60
2018-12-04T05:14:21.649Z,47.10
2018-12-04T05:16:47.635Z,46.70
2018-12-04T05:19:13.601Z,46.70
2018-12-04T05:21:39.626Z,46.70
2018-12-04T05:24:05.622Z,46.70
2018-12-04T05:26:31.617Z,46.70
2018-12-04T05:28:57.606Z,46.60
2018-12-04T05:31:23.617Z,46.60
2018-12-04T05:33:49.681Z,46.60
2018-12-04T05:36:15.709Z,46.60
2018-12-04T05:38:41.699Z,46.60
2018-12-04T05:41:07.686Z,46.50
2018-12-04T05:43:33.661Z,46.60
2018-12-04T05:45:59.671Z,46.60
2018-12-04T05:48:25.636Z,46.70
2018-12-04T05:50:51.635Z,46.90
2018-12-04T05:53:17.632Z,47.30
2018-12-04T05:55:43.634Z,47.60
2018-12-04T05:58:09.636Z,47.60
2018-12-04T06:00:35.630Z,47.80
2018-12-04T06:03:01.625Z,48.10
2018-12-04T06:05:27.599Z,48.90
2018-12-04T06:07:53.570Z,49.10
2018-12-04T06:10:19.575Z,49.40
2018-12-04T06:12:45.647Z,49.20
2018-12-04T06:15:11.626Z,49.20
2018-12-04T06:17:37.588Z,49.10
2018-12-04T06:20:03.600Z,49.10
2018-12-04T06:22:29.628Z,49.10
2018-12-04T06:24:55.637Z,49.10
2018-12-04T06:27:21.604Z,49.10
2018-12-04T06:29:47.778Z,49.00
2018-12-04T06:32:13.824Z,49.10
2018-12-04T06:34:39.835Z,49.60
2018-12-04T06:37:05.835Z,49.40
2018-12-04T06:39:31.828Z,49.80
2018-12-04T06:41:57.784Z,49.40
2018-12-04T06:44:23.776Z,49.40
2018-12-04T06:46:49.765Z,49.50
2018-12-04T06:49:15.766Z,49.40
2018-12-04T06:51:41.738Z,49.40
2018-12-04T06:54:07.724Z,49.10
2018-12-04T06:56:33.677Z,49.00
2018-12-04T06:58:59.666Z,49.00
2018-12-04T07:01:25.685Z,49.10
2018-12-04T07:03:51.637Z,49.00
2018-12-04T07:06:17.610Z,49.20
2018-12-04T07:08:44.658Z,49.00
2018-12-04T07:11:10.726Z,48.90
2018-12-04T07:13:36.705Z,48.90
2018-12-04T07:16:02.686Z,48.80
2018-12-04T07:18:28.694Z,48.80
2018-12-04T07:20:54.673Z,48.60
2018-12-04T07:23:20.654Z,48.60
2018-12-04T07:25:46.634Z,48.50
2018-12-04T07:28:12.619Z,48.50
2018-12-04T07:30:38.622Z,48.40
2018-12-04T07:33:04.610Z,48.30
2018-12-04T07:35:30.595Z,48.30
2018-12-04T07:37:56.569Z,48.20
2018-12-04T07:40:22.534Z,48.30
2018-12-04T07:42:48.515Z,48.30
2018-12-04T07:45:14.517Z,48.20
2018-12-04T07:47:40.509Z,48.20
2018-12-04T07:50:06.466Z,48.10
2018-12-04T07:52:32.434Z,48.20
2018-12-04T07:54:58.574Z,48.20
2018-12-04T07:57:24.567Z,48.70
2018-12-04T07:59:50.673Z,48.10
2018-12-04T08:02:16.653Z,48.00
2018-12-04T08:04:42.617Z,48.00
2018-12-04T08:07:08.596Z,48.00
2018-12-04T08:09:34.566Z,48.00
2018-12-04T08:12:00.532Z,48.00
2018-12-04T08:14:26.527Z,47.90
2018-12-04T08:16:52.505Z,48.00
2018-12-04T08:19:18.506Z,47.90
2018-12-04T08:21:44.473Z,48.00
2018-12-04T08:24:10.488Z,47.80
2018-12-04T08:26:36.506Z,48.00
2018-12-04T08:29:02.500Z,47.80
2018-12-04T08:31:28.482Z,47.80
2018-12-04T08:33:54.456Z,47.80
2018-12-04T08:36:20.469Z,47.70
2018-12-04T08:38:46.462Z,47.70
2018-12-04T08:41:12.436Z,47.70
2018-12-04T08:43:38.398Z,47.70
2018-12-04T08:46:04.360Z,47.70
2018-12-04T08:48:30.321Z,47.90
2018-12-04T08:50:56.321Z,47.70
2018-12-04T08:53:22.318Z,47.70
2018-12-04T08:55:48.902Z,47.70
2018-12-04T08:58:14.877Z,47.70
2018-12-04T09:00:40.843Z,47.70
2018-12-04T09:03:06.818Z,47.70
2018-12-04T09:05:32.814Z,47.70
2018-12-04T09:07:58.898Z,47.60
2018-12-04T09:10:24.887Z,47.60
2018-12-04T09:12:50.885Z,47.60
2018-12-04T09:15:16.926Z,47.60
2018-12-04T09:17:42.902Z,47.60
2018-12-04T09:20:08.925Z,47.60
2018-12-04T09:22:34.978Z,47.50
2018-12-04T09:25:01.041Z,47.50
2018-12-04T09:27:27.230Z,47.50
2018-12-04T09:29:53.431Z,47.50
2018-12-04T09:32:19.522Z,47.50
2018-12-04T09:34:45.524Z,47.20
2018-12-04T09:37:11.523Z,47.50
2018-12-04T09:39:37.659Z,47.50
2018-12-04T09:42:03.658Z,47.50
2018-12-04T09:44:29.657Z,47.50
2018-12-04T09:46:55.669Z,47.50
2018-12-04T09:49:21.640Z,47.40
2018-12-04T09:51:47.623Z,47.50
2018-12-04T09:54:13.590Z,47.50
2018-12-04T09:56:39.575Z,47.40
2018-12-04T09:59:05.642Z,47.40
2018-12-04T10:01:31.776Z,47.40
2018-12-04T10:03:57.765Z,47.40
2018-12-04T10:06:23.736Z,47.40
2018-12-04T10:08:49.838Z,47.40
2018-12-04T10:11:15.854Z,47.40
2018-12-04T10:13:41.841Z,47.40
2018-12-04T10:16:07.845Z,47.40
2018-12-04T10:18:33.869Z,47.40
2018-12-04T10:20:59.938Z,47.30
2018-12-04T10:23:25.898Z,47.40
2018-12-04T10:25:51.894Z,47.40
2018-12-04T10:28:17.887Z,47.40
2018-12-04T10:30:45.905Z,47.30
2018-12-04T10:33:11.895Z,47.30
2018-12-04T10:35:37.986Z,47.30
2018-12-04T10:38:03.969Z,47.30
2018-12-04T10:40:29.959Z,47.20
2018-12-04T10:42:58.890Z,47.20
2018-12-04T10:45:24.886Z,47.20
2018-12-04T10:47:50.897Z,47.20
2018-12-04T10:50:16.879Z,47.20
2018-12-04T10:52:43.155Z,47.20
2018-12-04T10:55:09.180Z,47.40
2018-12-04T10:57:35.154Z,47.10
2018-12-04T11:00:01.120Z,47.10
2018-12-04T11:02:29.126Z,47.10
2018-12-04T11:04:55.154Z,47.10
2018-12-04T11:07:21.211Z,47.10
2018-12-04T11:09:47.204Z,47.00
2018-12-04T11:12:13.198Z,47.00
2018-12-04T11:14:39.193Z,47.10
2018-12-04T11:17:05.198Z,47.00
2018-12-04T11:19:31.175Z,47.00
2018-12-04T11:21:57.163Z,47.00
2018-12-04T11:24:23.168Z,47.00
2018-12-04T11:26:49.145Z,47.00
2018-12-04T11:29:15.167Z,47.00
2018-12-04T11:31:41.155Z,47.00
2018-12-04T11:34:07.128Z,47.00
2018-12-04T11:36:33.092Z,47.00
2018-12-04T11:38:59.090Z,47.00
2018-12-04T11:41:25.138Z,46.90
2018-12-04T11:43:51.136Z,47.00
2018-12-04T11:46:17.113Z,46.90
2018-12-04T11:48:43.116Z,47.00
2018-12-04T11:51:09.127Z,47.00
2018-12-04T11:53:35.101Z,46.90
2018-12-04T11:56:01.124Z,47.00
2018-12-04T11:58:27.084Z,46.90
2018-12-04T12:00:53.056Z,47.00
2018-12-04T12:03:19.046Z,46.90
2018-12-04T12:05:45.304Z,46.90
2018-12-04T12:08:11.284Z,46.90
2018-12-04T12:10:37.299Z,46.90
2018-12-04T12:13:03.277Z,46.90
2018-12-04T12:15:29.256Z,46.90
2018-12-04T12:17:55.242Z,46.90
2018-12-04T12:20:21.228Z,46.90
2018-12-04T12:22:47.224Z,46.90
2018-12-04T12:25:13.216Z,46.90
2018-12-04T12:27:42.094Z,46.90
2018-12-04T12:30:08.093Z,46.90
2018-12-04T12:32:34.091Z,46.80
2018-12-04T12:35:00.050Z,46.80
2018-12-04T12:37:26.042Z,46.80
2018-12-04T12:39:52.045Z,46.90
2018-12-04T12:42:18.070Z,46.80
2018-12-04T12:44:44.061Z,46.80
2018-12-04T12:47:10.050Z,46.70
2018-12-04T12:49:36.040Z,46.70
2018-12-04T12:52:02.020Z,46.80
2018-12-04T12:54:27.994Z,46.60
2018-12-04T12:56:53.970Z,46.60
2018-12-04T12:59:19.949Z,46.70
2018-12-04T13:01:45.947Z,46.60
2018-12-04T13:04:11.925Z,46.60
2018-12-04T13:06:37.905Z,46.60
2018-12-04T13:09:03.987Z,46.60
2018-12-04T13:11:29.969Z,46.60
2018-12-04T13:13:55.983Z,46.60
2018-12-04T13:16:21.948Z,46.50
2018-12-04T13:18:47.950Z,46.50
2018-12-04T13:21:13.966Z,46.50
2018-12-04T13:23:39.970Z,46.40
2018-12-04T13:26:05.958Z,46.40
2018-12-04T13:28:31.956Z,46.40
2018-12-04T13:30:58.077Z,46.50
2018-12-04T13:33:24.227Z,46.50
2018-12-04T13:35:50.218Z,46.50
2018-12-04T13:38:16.254Z,46.40
2018-12-04T13:40:42.249Z,46.40
2018-12-04T13:43:08.257Z,46.40
2018-12-04T13:45:34.367Z,46.40
2018-12-04T13:48:00.875Z,46.40
2018-12-04T13:50:27.061Z,46.40
2018-12-04T13:52:53.045Z,46.90
2018-12-04T13:55:19.053Z,46.40
2018-12-04T13:57:50.600Z,46.40
2018-12-04T14:00:13.204Z,46.40
2018-12-04T14:02:39.307Z,46.40
2018-12-04T14:05:08.049Z,46.40
2018-12-04T14:07:33.430Z,46.40
2018-12-04T14:09:59.479Z,46.30
2018-12-04T14:12:25.564Z,46.40
2018-12-04T14:14:51.648Z,46.40
2018-12-04T14:17:17.636Z,46.30
2018-12-04T14:19:43.621Z,46.40
2018-12-04T14:22:09.642Z,46.40
2018-12-04T14:24:35.754Z,46.30
2018-12-04T14:27:01.732Z,46.20
2018-12-04T14:29:27.737Z,46.20
2018-12-04T14:31:53.844Z,46.30
2018-12-04T14:34:19.867Z,46.20
2018-12-04T14:36:45.982Z,46.20
2018-12-04T14:39:12.093Z,46.20
2018-12-04T14:41:38.122Z,46.20
2018-12-04T14:44:04.102Z,46.20
2018-12-04T14:46:30.150Z,46.10
2018-12-04T14:48:56.175Z,46.20
2018-12-04T14:51:22.136Z,46.20
2018-12-04T14:53:48.126Z,46.10
2018-12-04T14:56:14.186Z,46.10
2018-12-04T14:58:40.232Z,46.10
2018-12-04T15:01:06.269Z,46.10
2018-12-04T15:03:32.268Z,46.10
2018-12-04T15:05:58.345Z,46.10
2018-12-04T15:08:24.445Z,46.10
2018-12-04T15:10:50.588Z,46.00
2018-12-04T15:13:16.597Z,46.00
2018-12-04T15:15:42.668Z,46.10
2018-12-04T15:18:12.190Z,46.20
2018-12-04T15:20:38.296Z,46.20
2018-12-04T15:23:04.390Z,46.90
2018-12-04T15:25:30.479Z,46.20
2018-12-04T15:27:56.602Z,46.10
2018-12-04T15:30:22.714Z,46.20
2018-12-04T15:32:48.844Z,46.10
2018-12-04T15:35:14.862Z,46.10
2018-12-04T15:37:40.937Z,46.00
2018-12-04T15:40:07.085Z,46.00
2018-12-04T15:42:33.181Z,46.10
2018-12-04T15:44:59.307Z,46.10
2018-12-04T15:47:25.417Z,46.10
2018-12-04T15:49:51.489Z,46.20
2018-12-04T15:52:17.531Z,46.20
2018-12-04T15:54:43.580Z,46.20
2018-12-04T15:57:09.655Z,46.10
2018-12-04T15:59:35.666Z,46.00
2018-12-04T16:02:01.946Z,46.10
2018-12-04T16:04:27.996Z,45.90
2018-12-04T16:06:54.023Z,46.00
2018-12-04T16:09:20.035Z,46.30
2018-12-04T16:11:46.033Z,46.20
2018-12-04T16:14:12.033Z,46.10
2018-12-04T16:16:38.041Z,46.00
2018-12-04T16:19:04.039Z,46.00
2018-12-04T16:21:30.019Z,45.90
2018-12-04T16:23:56.016Z,45.90
2018-12-04T16:26:22.042Z,45.80
2018-12-04T16:28:48.038Z,45.80
2018-12-04T16:31:14.041Z,45.80
2018-12-04T16:33:40.035Z,45.80
2018-12-04T16:36:06.035Z,45.80
2018-12-04T16:38:32.055Z,45.80
2018-12-04T16:40:58.041Z,46.00
2018-12-04T16:43:24.062Z,45.70
2018-12-04T16:45:50.073Z,45.70
2018-12-04T16:48:16.117Z,45.70
2018-12-04T16:50:42.103Z,45.80
2018-12-04T16:53:08.250Z,45.80
2018-12-04T16:55:34.362Z,45.80
2018-12-04T16:58:01.367Z,46.90
2018-12-04T17:00:28.465Z,46.10
2018-12-04T17:02:54.526Z,46.00
2018-12-04T17:05:20.530Z,46.20
2018-12-04T17:07:46.585Z,46.10
2018-12-04T17:10:14.169Z,46.30
2018-12-04T17:12:40.133Z,46.40
2018-12-04T17:15:06.768Z,46.30
2018-12-04T17:17:32.835Z,46.90
2018-12-04T17:19:58.862Z,46.70
2018-12-04T17:22:24.879Z,46.70
2018-12-04T17:24:50.880Z,46.80
2018-12-04T17:27:16.868Z,46.70
2018-12-04T17:29:42.901Z,46.70
2018-12-04T17:32:08.862Z,46.70
2018-12-04T17:34:34.899Z,46.60
2018-12-04T17:37:00.899Z,46.50
2018-12-04T17:39:26.877Z,46.60
2018-12-04T17:41:52.845Z,46.50
2018-12-04T17:44:18.866Z,46.10
2018-12-04T17:46:44.872Z,45.90
2018-12-04T17:49:10.870Z,45.80
2018-12-04T17:51:36.900Z,45.60
2018-12-04T17:54:02.939Z,45.30
2018-12-04T17:56:28.976Z,45.10
2018-12-04T17:58:54.991Z,44.90
2018-12-04T18:01:20.979Z,45.00
2018-12-04T18:03:47.003Z,45.00
2018-12-04T18:06:12.981Z,44.90
2018-12-04T18:08:38.971Z,44.80
2018-12-04T18:11:05.217Z,44.80
2018-12-04T18:13:31.223Z,44.80
2018-12-04T18:15:57.199Z,44.90
2018-12-04T18:18:23.227Z,44.80
2018-12-04T18:20:49.219Z,45.00
2018-12-04T18:23:15.203Z,44.90
2018-12-04T18:25:41.761Z,44.90
2018-12-04T18:28:07.783Z,44.80
2018-12-04T18:30:33.795Z,44.80
2018-12-04T18:32:59.762Z,44.80
2018-12-04T18:35:25.767Z,44.70
2018-12-04T18:37:51.775Z,44.80
2018-12-04T18:40:17.811Z,44.80
2018-12-04T18:42:43.869Z,44.70
2018-12-04T18:45:10.912Z,44.60
2018-12-04T18:47:36.921Z,44.70
2018-12-04T18:50:02.951Z,44.70
2018-12-04T18:52:29.057Z,44.40
2018-12-04T18:54:55.098Z,44.00
2018-12-04T18:57:21.209Z,44.10
2018-12-04T18:59:47.194Z,44.10
2018-12-04T19:02:13.241Z,44.10
2018-12-04T19:04:39.246Z,44.00
2018-12-04T19:07:05.260Z,44.00
2018-12-04T19:09:31.262Z,44.10
2018-12-04T19:11:57.387Z,44.00
2018-12-04T19:14:23.413Z,44.10
2018-12-04T19:16:49.406Z,44.00
2018-12-04T19:19:15.387Z,44.20
2018-12-04T19:21:41.378Z,44.20
2018-12-04T19:24:07.389Z,44.20
2018-12-04T19:26:33.377Z,44.10
2018-12-04T19:28:59.380Z,44.20
2018-12-04T19:31:25.361Z,44.20
2018-12-04T19:33:51.395Z,44.10
2018-12-04T19:36:17.424Z,44.10
2018-12-04T19:38:49.913Z,44.10
2018-12-04T19:41:15.938Z,44.00
2018-12-04T19:43:41.942Z,44.50
2018-12-04T19:46:08.329Z,43.90
2018-12-04T19:48:34.358Z,43.90
2018-12-04T19:51:00.580Z,43.90
2018-12-04T19:53:26.577Z,44.00
2018-12-04T19:55:52.877Z,43.90
2018-12-04T19:58:19.404Z,43.90
2018-12-04T20:00:45.596Z,43.80
2018-12-04T20:03:11.832Z,43.80
2018-12-04T20:05:37.835Z,43.80
2018-12-04T20:08:03.887Z,43.70
2018-12-04T20:10:30.094Z,43.70
2018-12-04T20:12:56.247Z,43.70
2018-12-04T20:15:22.404Z,43.70
2018-12-04T20:17:48.523Z,43.60
2018-12-04T20:20:14.753Z,43.60
2018-12-04T20:22:40.821Z,43.60
2018-12-04T20:25:06.871Z,43.70
2018-12-04T20:27:32.956Z,43.50
2018-12-04T20:29:59.110Z,43.50
2018-12-04T20:32:25.134Z,43.60
2018-12-04T20:34:51.116Z,43.60
2018-12-04T20:37:17.223Z,43.50
2018-12-04T20:39:43.344Z,43.50
2018-12-04T20:42:10.303Z,43.40
2018-12-04T20:44:36.747Z,43.60
2018-12-04T20:47:02.788Z,43.50
2018-12-04T20:49:28.786Z,43.40
2018-12-04T20:51:54.765Z,43.50
2018-12-04T20:54:20.896Z,43.50
2018-12-04T20:56:47.289Z,43.50
2018-12-04T20:59:13.428Z,43.40
2018-12-04T21:01:39.547Z,43.40
2018-12-04T21:04:05.569Z,43.40
2018-12-04T21:06:31.639Z,43.30
2018-12-04T21:08:57.736Z,43.40
2018-12-04T21:11:23.753Z,43.40
2018-12-04T21:13:49.750Z,43.30
2018-12-04T21:16:15.752Z,43.40
2018-12-04T21:18:42.073Z,43.50
2018-12-04T21:21:08.491Z,43.60
2018-12-04T21:23:34.540Z,43.60
2018-12-04T21:26:00.555Z,43.70
2018-12-04T21:28:26.556Z,43.70
2018-12-04T21:34:00.908Z,43.70
2018-12-04T21:36:33.119Z,43.80
2018-12-04T21:39:01.123Z,43.80
2018-12-04T21:41:33.115Z,43.80
2018-12-04T21:44:05.177Z,43.90
2018-12-04T21:46:37.309Z,43.90
2018-12-04T21:49:03.295Z,43.80
2018-12-04T21:51:29.289Z,43.80
2018-12-04T21:53:55.289Z,43.80
2018-12-04T21:56:21.296Z,43.80
2018-12-04T21:58:47.304Z,43.80
2018-12-04T22:01:13.313Z,43.80
2018-12-04T22:03:39.293Z,43.70
2018-12-04T22:06:05.284Z,43.50
2018-12-04T22:08:31.303Z,43.60
2018-12-04T22:10:57.287Z,44.20
2018-12-04T22:13:23.279Z,43.80
2018-12-04T22:15:49.272Z,43.60
2018-12-04T22:18:15.245Z,43.10
2018-12-04T22:20:41.227Z,43.60
2018-12-04T22:23:07.213Z,44.10
2018-12-04T22:25:33.215Z,43.50
2018-12-04T22:27:59.184Z,43.60
2018-12-04T22:30:25.185Z,43.60
2018-12-04T22:32:51.173Z,43.60
2018-12-04T22:35:17.168Z,43.60
2018-12-04T22:37:43.145Z,43.60
2018-12-04T22:40:09.120Z,44.30
2018-12-04T22:42:35.967Z,43.10
2018-12-04T22:45:08.336Z,43.50
2018-12-04T22:47:34.324Z,43.60
2018-12-04T22:50:00.302Z,43.80
2018-12-04T22:52:26.924Z,43.80
2018-12-04T22:54:52.946Z,43.60
2018-12-04T22:57:18.962Z,43.60
2018-12-04T22:59:44.951Z,43.70
2018-12-04T23:02:10.967Z,43.60
2018-12-04T23:04:36.959Z,43.60
2018-12-04T23:07:02.978Z,43.60
2018-12-04T23:09:28.961Z,43.60
2018-12-04T23:11:54.950Z,43.60
2018-12-04T23:14:20.932Z,43.60
2018-12-04T23:16:46.915Z,43.50
2018-12-04T23:19:12.879Z,43.50
2018-12-04T23:21:38.873Z,43.60
2018-12-04T23:24:04.856Z,43.60
2018-12-04T23:26:30.833Z,43.60
2018-12-04T23:28:56.827Z,43.60
2018-12-04T23:31:22.821Z,43.60
2018-12-04T23:33:48.811Z,43.60
2018-12-04T23:36:14.800Z,43.70
2018-12-04T23:38:40.828Z,43.70
2018-12-04T23:41:06.814Z,43.50
2018-12-04T23:43:32.799Z,43.60
2018-12-04T23:45:58.775Z,43.50
2018-12-04T23:48:24.774Z,43.50
2018-12-04T23:50:50.758Z,43.50
2018-12-04T23:53:16.743Z,43.40
2018-12-04T23:55:42.697Z,43.40
2018-12-04T23:58:08.661Z,43.90
